createdAt,value
2023-05-07T00:00:35.123Z,12.30
2023-05-07T00:03:03.183Z,12.40
2023-05-07T00:05:32.543Z,12.30
2023-05-07T00:08:00.365Z,12.20
2023-05-07T00:10:28.337Z,12.30
2023-05-07T00:12:56.156Z,12.30
2023-05-07T00:15:24.044Z,12.20
2023-05-07T00:17:51.874Z,12.00
2023-05-07T00:20:19.681Z,12.10
2023-05-07T00:22:48.831Z,12.20
2023-05-07T00:25:16.775Z,12.20
2023-05-07T00:27:44.615Z,12.10
2023-05-07T00:30:13.537Z,12.00
2023-05-07T00:32:41.483Z,11.90
2023-05-07T00:35:10.571Z,11.90
2023-05-07T00:37:38.603Z,12.10
2023-05-07T00:40:09.736Z,12.00
2023-05-07T00:42:38.315Z,12.00
2023-05-07T00:45:07.478Z,12.20
2023-05-07T00:47:35.344Z,12.10
2023-05-07T00:50:03.472Z,11.90
2023-05-07T00:52:31.384Z,12.00
2023-05-07T00:54:59.171Z,11.80
2023-05-07T00:57:28.303Z,11.70
2023-05-07T00:59:56.287Z,11.90
2023-05-07T01:02:24.105Z,11.90
2023-05-07T01:04:51.922Z,11.70
2023-05-07T01:07:20.162Z,11.60
2023-05-07T01:09:47.948Z,11.70
2023-05-07T01:12:16.774Z,11.70
2023-05-07T01:14:45.887Z,11.60
2023-05-07T01:17:14.262Z,11.70
2023-05-07T01:19:42.220Z,11.70
2023-05-07T01:22:11.457Z,11.70
2023-05-07T01:24:40.616Z,11.90
2023-05-07T01:27:08.397Z,11.90
2023-05-07T01:29:36.201Z,11.70
2023-05-07T01:32:04.018Z,12.00
2023-05-07T01:34:33.404Z,11.80
2023-05-07T01:37:01.210Z,11.80
2023-05-07T01:39:30.271Z,11.70
2023-05-07T01:41:59.406Z,11.50
2023-05-07T01:44:27.196Z,11.70
2023-05-07T01:46:55.056Z,12.00
2023-05-07T01:49:22.874Z,12.10
2023-05-07T01:51:51.268Z,11.80
2023-05-07T01:54:19.059Z,11.70
2023-05-07T01:56:48.996Z,11.80
2023-05-07T01:59:18.119Z,11.90
2023-05-07T02:01:45.948Z,11.60
2023-05-07T02:04:13.854Z,11.70
2023-05-07T02:06:41.749Z,12.00
2023-05-07T02:09:10.105Z,12.10
2023-05-07T02:11:37.944Z,12.00
2023-05-07T02:14:05.774Z,11.90
2023-05-07T02:16:34.930Z,11.60
2023-05-07T02:19:02.727Z,11.80
2023-05-07T02:21:31.272Z,12.00
2023-05-07T02:23:59.129Z,11.80
2023-05-07T02:26:27.427Z,11.70
2023-05-07T02:28:55.253Z,11.80
2023-05-07T02:31:23.069Z,11.50
2023-05-07T02:33:52.204Z,11.60
2023-05-07T02:36:19.980Z,11.50
2023-05-07T02:38:47.767Z,11.40
2023-05-07T02:41:15.561Z,11.50
2023-05-07T02:43:43.342Z,11.40
2023-05-07T02:46:11.235Z,11.40
2023-05-07T02:48:39.107Z,11.40
2023-05-07T02:51:08.354Z,11.40
2023-05-07T02:53:36.253Z,11.70
2023-05-07T02:56:04.297Z,11.90
2023-05-07T02:58:32.087Z,11.60
2023-05-07T03:01:00.071Z,11.50
2023-05-07T03:03:27.900Z,11.30
2023-05-07T03:05:55.656Z,11.20
2023-05-07T03:08:24.770Z,11.30
2023-05-07T03:10:52.576Z,11.20
2023-05-07T03:13:20.611Z,11.60
2023-05-07T03:15:48.513Z,11.40
2023-05-07T03:18:16.401Z,11.30
2023-05-07T03:20:44.324Z,11.20
2023-05-07T03:23:12.132Z,11.10
2023-05-07T03:25:41.279Z,11.10
2023-05-07T03:28:09.058Z,11.40
2023-05-07T03:30:36.863Z,11.60
2023-05-07T03:33:04.856Z,11.50
2023-05-07T03:35:32.719Z,11.60
2023-05-07T03:38:00.502Z,11.70
2023-05-07T03:40:28.337Z,11.20
2023-05-07T03:42:57.472Z,11.30
2023-05-07T03:45:25.280Z,11.70
2023-05-07T03:47:53.091Z,11.50
2023-05-07T03:50:21.303Z,11.00
2023-05-07T03:52:49.099Z,10.80
2023-05-07T03:55:16.899Z,11.00
2023-05-07T03:57:44.670Z,11.00
2023-05-07T04:00:15.502Z,10.70
2023-05-07T04:02:43.505Z,10.70
2023-05-07T04:05:11.529Z,10.70
2023-05-07T04:07:39.326Z,10.80
2023-05-07T04:10:08.153Z,10.70
2023-05-07T04:12:36.067Z,10.60
2023-05-07T04:15:03.952Z,10.60
2023-05-07T04:17:33.108Z,10.60
2023-05-07T04:20:00.984Z,10.60
2023-05-07T04:22:28.780Z,10.50
2023-05-07T04:24:57.253Z,10.50
2023-05-07T04:27:25.433Z,10.60
2023-05-07T04:29:56.713Z,10.60
2023-05-07T04:32:25.951Z,10.70
2023-05-07T04:34:55.114Z,10.80
2023-05-07T04:37:22.974Z,10.80
2023-05-07T04:39:50.765Z,10.60
2023-05-07T04:42:18.776Z,10.60
2023-05-07T04:44:46.674Z,10.70
2023-05-07T04:47:14.502Z,10.60
2023-05-07T04:49:42.285Z,10.70
2023-05-07T04:52:11.419Z,11.00
2023-05-07T04:54:39.204Z,11.20
2023-05-07T04:57:07.057Z,11.20
2023-05-07T04:59:34.871Z,11.30
2023-05-07T05:02:02.760Z,11.30
2023-05-07T05:04:30.629Z,11.10
2023-05-07T05:06:58.407Z,11.10
2023-05-07T05:09:27.548Z,11.00
2023-05-07T05:11:55.329Z,10.90
2023-05-07T05:14:23.148Z,10.90
2023-05-07T05:16:51.000Z,10.80
2023-05-07T05:19:18.822Z,10.90
2023-05-07T05:21:46.734Z,10.90
2023-05-07T05:24:14.512Z,11.20
2023-05-07T05:26:43.592Z,11.20
2023-05-07T05:29:11.392Z,11.20
2023-05-07T05:31:39.186Z,11.40
2023-05-07T05:34:06.970Z,11.40
2023-05-07T05:36:34.706Z,11.40
2023-05-07T05:39:02.498Z,11.60
2023-05-07T05:41:30.275Z,11.80
2023-05-07T05:43:59.404Z,11.70
2023-05-07T05:46:27.281Z,11.70
2023-05-07T05:48:55.132Z,11.80
2023-05-07T05:51:23.098Z,11.70
2023-05-07T05:53:50.934Z,11.90
2023-05-07T05:56:18.749Z,11.90
2023-05-07T05:58:46.669Z,12.00
2023-05-07T06:01:15.989Z,12.00
2023-05-07T06:03:43.783Z,12.30
2023-05-07T06:06:11.828Z,12.20
2023-05-07T06:08:39.755Z,12.20
2023-05-07T06:11:07.577Z,12.40
2023-05-07T06:13:35.434Z,12.40
2023-05-07T06:16:03.407Z,12.50
2023-05-07T06:18:32.556Z,12.70
2023-05-07T06:21:00.364Z,12.70
2023-05-07T06:23:28.154Z,13.20
2023-05-07T06:25:56.063Z,13.20
2023-05-07T06:28:23.866Z,13.20
2023-05-07T06:30:51.844Z,13.30
2023-05-07T06:33:20.707Z,13.20
2023-05-07T06:35:49.894Z,13.30
2023-05-07T06:38:18.374Z,13.50
2023-05-07T06:40:46.147Z,13.60
2023-05-07T06:43:14.254Z,13.70
2023-05-07T06:45:42.105Z,13.90
2023-05-07T06:48:09.922Z,13.90
2023-05-07T06:50:37.712Z,13.90
2023-05-07T06:53:06.914Z,14.30
2023-05-07T06:55:34.676Z,14.40
2023-05-07T06:58:02.790Z,14.40
2023-05-07T07:00:30.579Z,14.50
2023-05-07T07:02:58.780Z,14.50
2023-05-07T07:05:26.754Z,14.60
2023-05-07T07:07:55.029Z,14.70
2023-05-07T07:10:24.378Z,14.80
2023-05-07T07:12:53.412Z,15.00
2023-05-07T07:15:22.556Z,15.00
2023-05-07T07:17:50.431Z,15.10
2023-05-07T07:20:18.306Z,15.20
2023-05-07T07:22:46.144Z,15.40
2023-05-07T07:25:13.951Z,15.50
2023-05-07T07:27:43.118Z,15.60
2023-05-07T07:30:11.436Z,16.30
2023-05-07T07:32:39.583Z,16.80
2023-05-07T07:35:08.613Z,17.20
2023-05-07T07:37:36.493Z,17.90
2023-05-07T07:40:04.575Z,18.20
2023-05-07T07:42:32.366Z,18.10
2023-05-07T07:45:01.542Z,18.50
2023-05-07T07:47:29.476Z,18.70
2023-05-07T07:49:57.950Z,18.60
2023-05-07T07:52:25.795Z,19.00
2023-05-07T07:54:53.587Z,19.10
2023-05-07T07:57:21.372Z,19.30
2023-05-07T07:59:49.181Z,19.50
2023-05-07T08:02:18.389Z,19.60
2023-05-07T08:04:46.216Z,19.50
2023-05-07T08:07:14.177Z,19.60
2023-05-07T08:09:42.099Z,19.40
2023-05-07T08:12:09.889Z,19.50
2023-05-07T08:14:38.329Z,19.90
2023-05-07T08:17:06.172Z,20.10
2023-05-07T08:19:35.895Z,20.50
2023-05-07T08:22:05.046Z,20.50
2023-05-07T08:24:32.851Z,20.90
2023-05-07T08:27:00.699Z,21.20
2023-05-07T08:29:28.472Z,21.40
2023-05-07T08:31:56.283Z,21.40
2023-05-07T08:34:24.254Z,21.30
2023-05-07T08:36:53.386Z,21.60
2023-05-07T08:39:21.310Z,21.80
2023-05-07T08:41:49.169Z,21.80
2023-05-07T08:44:16.950Z,22.30
2023-05-07T08:46:44.786Z,22.30
2023-05-07T08:49:12.633Z,21.90
2023-05-07T08:51:40.538Z,22.20
2023-05-07T08:54:09.720Z,22.10
2023-05-07T08:56:37.562Z,22.50
2023-05-07T08:59:05.371Z,22.60
2023-05-07T09:01:33.216Z,22.50
2023-05-07T09:04:01.107Z,22.50
2023-05-07T09:06:29.036Z,22.70
2023-05-07T09:08:57.386Z,22.80
2023-05-07T09:11:26.576Z,22.80
2023-05-07T09:13:55.674Z,22.50
2023-05-07T09:16:23.662Z,22.60
2023-05-07T09:18:53.555Z,22.80
2023-05-07T09:21:21.542Z,23.10
2023-05-07T09:23:50.334Z,23.30
2023-05-07T09:26:18.118Z,23.40
2023-05-07T09:28:47.504Z,23.90
2023-05-07T09:31:15.602Z,23.20
2023-05-07T09:33:43.494Z,23.10
2023-05-07T09:36:11.594Z,23.20
2023-05-07T09:38:39.649Z,23.10
2023-05-07T09:41:07.986Z,23.40
2023-05-07T09:43:36.459Z,23.60
2023-05-07T09:46:10.800Z,23.70
2023-05-07T09:48:40.191Z,24.10
2023-05-07T09:51:13.457Z,23.70
2023-05-07T09:53:41.452Z,24.00
2023-05-07T09:56:09.439Z,24.40
2023-05-07T09:58:38.858Z,24.20
2023-05-07T10:01:06.823Z,24.30
2023-05-07T10:03:36.156Z,24.20
2023-05-07T10:06:04.156Z,24.40
2023-05-07T10:08:32.581Z,23.90
2023-05-07T10:11:01.458Z,24.30
2023-05-07T10:13:29.352Z,24.60
2023-05-07T10:15:57.435Z,24.50
2023-05-07T10:18:30.326Z,24.50
2023-05-07T10:21:00.976Z,24.60
2023-05-07T10:23:28.798Z,24.70
2023-05-07T10:26:00.722Z,25.00
2023-05-07T10:28:29.205Z,24.70
2023-05-07T10:31:03.239Z,24.80
2023-05-07T10:33:31.352Z,24.90
2023-05-07T10:36:02.457Z,24.90
2023-05-07T10:38:30.342Z,24.70
2023-05-07T10:40:58.168Z,25.10
2023-05-07T10:43:26.340Z,24.10
2023-05-07T10:46:13.836Z,24.30
2023-05-07T10:49:13.355Z,24.70
2023-05-07T10:51:42.572Z,25.10
2023-05-07T10:54:28.617Z,25.50
2023-05-07T10:56:56.555Z,25.30
2023-05-07T10:59:42.609Z,25.00
2023-05-07T11:02:12.245Z,24.70
2023-05-07T11:04:41.259Z,24.70
2023-05-07T11:07:28.273Z,24.70
2023-05-07T11:10:06.441Z,24.50
2023-05-07T11:12:54.261Z,25.10
2023-05-07T11:15:49.527Z,25.00
2023-05-07T11:18:17.918Z,25.00
2023-05-07T11:20:51.062Z,25.20
2023-05-07T11:24:00.696Z,25.50
2023-05-07T11:26:32.208Z,25.30
2023-05-07T11:29:01.329Z,25.40
2023-05-07T11:31:30.862Z,25.20
2023-05-07T11:33:58.819Z,24.50
2023-05-07T11:36:27.095Z,25.10
2023-05-07T11:38:55.030Z,24.50
2023-05-07T11:41:24.243Z,24.20
2023-05-07T11:43:59.162Z,23.80
2023-05-07T11:46:27.226Z,23.30
2023-05-07T11:48:55.100Z,23.50
2023-05-07T11:51:23.576Z,23.50
2023-05-07T11:53:51.809Z,23.30
2023-05-07T11:56:20.094Z,23.60
2023-05-07T11:58:49.737Z,24.00
2023-05-07T12:01:19.386Z,23.90
2023-05-07T12:03:47.722Z,23.70
2023-05-07T12:06:16.829Z,23.50
2023-05-07T12:08:47.064Z,23.30
2023-05-07T12:11:18.492Z,22.90
2023-05-07T12:13:46.692Z,22.80
2023-05-07T12:16:15.908Z,22.70
2023-05-07T12:18:43.727Z,22.70
2023-05-07T12:21:11.864Z,22.60
2023-05-07T12:23:40.251Z,22.70
2023-05-07T12:26:08.079Z,22.40
2023-05-07T12:28:39.842Z,22.40
2023-05-07T12:31:08.042Z,22.70
2023-05-07T12:33:37.534Z,23.00
2023-05-07T12:36:07.297Z,23.30
2023-05-07T12:38:38.916Z,23.30
2023-05-07T12:41:08.081Z,22.80
2023-05-07T12:43:36.024Z,22.80
2023-05-07T12:46:05.393Z,22.90
2023-05-07T12:48:33.265Z,22.40
2023-05-07T12:51:03.297Z,22.50
2023-05-07T12:53:32.129Z,22.50
2023-05-07T12:56:00.799Z,22.60
2023-05-07T12:58:29.478Z,22.70
2023-05-07T13:01:00.407Z,22.70
2023-05-07T13:03:29.519Z,22.40
2023-05-07T13:05:58.791Z,22.20
2023-05-07T13:08:29.394Z,22.20
2023-05-07T13:10:57.288Z,22.10
2023-05-07T13:13:25.178Z,22.00
2023-05-07T13:15:53.122Z,21.80
2023-05-07T13:18:21.090Z,21.80
2023-05-07T13:20:48.972Z,21.60
2023-05-07T13:23:16.773Z,21.40
2023-05-07T13:25:45.998Z,21.40
2023-05-07T13:28:13.944Z,21.50
2023-05-07T13:30:42.724Z,21.40
2023-05-07T13:33:10.573Z,21.20
2023-05-07T13:35:38.621Z,21.10
2023-05-07T13:38:06.465Z,21.20
2023-05-07T13:40:34.266Z,21.30
2023-05-07T13:43:03.894Z,21.20
2023-05-07T13:45:31.887Z,21.30
2023-05-07T13:47:59.979Z,21.10
2023-05-07T13:50:30.135Z,21.00
2023-05-07T13:52:57.964Z,21.00
2023-05-07T13:55:26.166Z,20.70
2023-05-07T13:57:57.604Z,20.70
2023-05-07T14:00:27.184Z,20.60
2023-05-07T14:02:55.112Z,20.50
2023-05-07T14:05:24.166Z,20.50
2023-05-07T14:07:53.586Z,20.40
2023-05-07T14:10:21.380Z,20.30
2023-05-07T14:12:49.227Z,20.30
2023-05-07T14:15:17.393Z,19.60
2023-05-07T14:17:46.672Z,18.90
2023-05-07T14:20:14.740Z,18.50
2023-05-07T14:22:42.852Z,18.20
2023-05-07T14:25:11.501Z,18.20
2023-05-07T14:27:39.410Z,17.80
2023-05-07T14:30:08.622Z,17.80
2023-05-07T14:32:36.483Z,17.60
2023-05-07T14:35:06.308Z,17.50
2023-05-07T14:37:34.136Z,17.50
2023-05-07T14:40:01.975Z,17.10
2023-05-07T14:42:29.808Z,17.00
2023-05-07T14:44:57.589Z,16.30
2023-05-07T14:47:25.352Z,15.80
2023-05-07T14:49:54.088Z,15.70
2023-05-07T14:52:23.237Z,15.40
2023-05-07T14:54:51.070Z,15.30
2023-05-07T14:57:19.474Z,14.80
2023-05-07T14:59:47.885Z,14.80
2023-05-07T15:02:16.169Z,14.90
2023-05-07T15:04:46.913Z,15.20
2023-05-07T15:07:15.953Z,15.40
2023-05-07T15:09:45.133Z,15.40
2023-05-07T15:12:13.017Z,15.60
2023-05-07T15:14:41.044Z,15.60
2023-05-07T15:17:09.344Z,15.70
2023-05-07T15:19:37.145Z,15.50
2023-05-07T15:22:04.990Z,15.70
2023-05-07T15:24:32.859Z,15.50
2023-05-07T15:27:02.049Z,15.70
2023-05-07T15:29:29.856Z,15.60
2023-05-07T15:31:57.713Z,15.60
2023-05-07T15:34:26.413Z,15.90
2023-05-07T15:36:54.257Z,16.10
2023-05-07T15:39:24.275Z,16.20
2023-05-07T15:41:52.804Z,16.20
2023-05-07T15:44:22.136Z,16.20
2023-05-07T15:46:49.948Z,16.40
2023-05-07T15:49:17.906Z,16.60
2023-05-07T15:51:45.711Z,16.80
2023-05-07T15:54:13.519Z,16.90
2023-05-07T15:56:41.330Z,16.90
2023-05-07T15:59:10.161Z,17.00
2023-05-07T16:01:41.101Z,17.00
2023-05-07T16:04:09.057Z,16.90
2023-05-07T16:06:36.924Z,17.00
2023-05-07T16:09:04.809Z,16.90
2023-05-07T16:11:33.915Z,17.00
2023-05-07T16:14:01.854Z,17.20
2023-05-07T16:16:30.385Z,17.20
2023-05-07T16:18:59.812Z,17.00
2023-05-07T16:21:27.662Z,16.80
2023-05-07T16:23:55.491Z,16.70
2023-05-07T16:26:23.292Z,16.60
2023-05-07T16:28:51.735Z,16.80
2023-05-07T16:31:19.686Z,16.70
2023-05-07T16:33:47.485Z,16.70
2023-05-07T16:36:16.889Z,16.60
2023-05-07T16:38:45.001Z,16.50
2023-05-07T16:41:13.345Z,16.50
2023-05-07T16:43:41.225Z,16.40
2023-05-07T16:46:09.141Z,16.30
2023-05-07T16:48:36.963Z,16.40
2023-05-07T16:51:04.942Z,16.60
2023-05-07T16:53:34.096Z,16.60
2023-05-07T16:56:05.545Z,16.70
2023-05-07T16:58:34.396Z,16.70
2023-05-07T17:01:02.469Z,16.60
2023-05-07T17:03:32.017Z,16.70
2023-05-07T17:06:00.093Z,16.60
2023-05-07T17:08:27.930Z,16.40
2023-05-07T17:10:57.085Z,16.30
2023-05-07T17:13:24.990Z,16.70
2023-05-07T17:15:52.982Z,16.70
2023-05-07T17:18:20.856Z,16.60
2023-05-07T17:20:48.701Z,16.40
2023-05-07T17:23:16.504Z,16.20
2023-05-07T17:25:45.523Z,16.40
2023-05-07T17:28:14.732Z,16.20
2023-05-07T17:30:42.524Z,16.30
2023-05-07T17:33:20.130Z,16.00
2023-05-07T17:35:49.612Z,16.20
2023-05-07T17:38:17.418Z,16.00
2023-05-07T17:40:45.239Z,16.10
2023-05-07T17:43:14.384Z,16.10
2023-05-07T17:45:42.221Z,15.80
2023-05-07T17:48:10.102Z,15.80
2023-05-07T17:50:37.915Z,15.80
2023-05-07T17:53:06.579Z,15.70
2023-05-07T17:55:34.454Z,15.60
2023-05-07T17:58:03.241Z,15.50
2023-05-07T18:00:32.766Z,15.40
2023-05-07T18:03:01.640Z,15.30
2023-05-07T18:05:30.060Z,15.60
2023-05-07T18:07:58.000Z,15.60
2023-05-07T18:10:25.853Z,15.70
2023-05-07T18:12:53.744Z,15.50
2023-05-07T18:15:21.828Z,15.30
2023-05-07T18:17:51.064Z,15.20
2023-05-07T18:20:19.006Z,15.20
2023-05-07T18:22:46.900Z,15.00
2023-05-07T18:25:14.738Z,15.00
2023-05-07T18:27:42.536Z,15.00
2023-05-07T18:30:11.675Z,15.10
2023-05-07T18:32:39.655Z,15.00
2023-05-07T18:35:09.759Z,14.90
2023-05-07T18:37:37.541Z,15.10
2023-05-07T18:40:06.470Z,15.10
2023-05-07T18:42:36.834Z,15.10
2023-05-07T18:45:05.603Z,15.10
2023-05-07T18:47:33.430Z,15.00
2023-05-07T18:50:01.525Z,15.00
2023-05-07T18:52:30.788Z,15.00
2023-05-07T18:54:58.685Z,15.00
2023-05-07T18:57:29.325Z,14.80
2023-05-07T18:59:57.205Z,14.90
2023-05-07T19:02:25.124Z,14.90
2023-05-07T19:04:53.050Z,14.80
2023-05-07T19:07:20.966Z,14.90
2023-05-07T19:10:03.665Z,14.90
2023-05-07T19:12:33.114Z,14.80
2023-05-07T19:15:00.960Z,14.50
2023-05-07T19:17:28.840Z,14.60
2023-05-07T19:19:56.659Z,14.60
2023-05-07T19:22:24.735Z,14.50
2023-05-07T19:24:54.355Z,14.30
2023-05-07T19:27:22.182Z,14.20
2023-05-07T19:29:50.027Z,14.40
2023-05-07T19:32:17.828Z,14.20
2023-05-07T19:34:45.665Z,14.00
2023-05-07T19:37:13.509Z,14.20
2023-05-07T19:39:41.444Z,14.30
2023-05-07T19:42:10.706Z,14.20
2023-05-07T19:44:38.505Z,14.20
2023-05-07T19:47:06.865Z,14.20
2023-05-07T19:49:34.699Z,14.20
2023-05-07T19:52:02.604Z,14.20
2023-05-07T19:54:30.741Z,14.10
2023-05-07T19:56:58.702Z,14.10
2023-05-07T19:59:28.294Z,14.20
2023-05-07T20:01:56.174Z,14.20
2023-05-07T20:04:29.052Z,14.10
2023-05-07T20:06:57.470Z,14.10
2023-05-07T20:09:25.343Z,14.10
2023-05-07T20:11:53.148Z,14.10
2023-05-07T20:14:20.965Z,14.10
2023-05-07T20:16:50.153Z,14.10
2023-05-07T20:19:18.636Z,14.30
2023-05-07T20:21:46.449Z,14.20
2023-05-07T20:24:14.336Z,14.10
2023-05-07T20:26:42.178Z,13.90
2023-05-07T20:29:10.009Z,14.00
2023-05-07T20:31:38.061Z,14.00
2023-05-07T20:34:07.334Z,13.90
2023-05-07T20:36:35.950Z,13.90
2023-05-07T20:39:04.176Z,13.80
2023-05-07T20:41:32.112Z,13.80
2023-05-07T20:44:00.413Z,13.90
2023-05-07T20:46:28.288Z,14.10
2023-05-07T20:48:56.608Z,14.00
2023-05-07T20:51:27.164Z,13.80
2023-05-07T20:53:55.022Z,13.80
2023-05-07T20:56:22.877Z,13.80
2023-05-07T20:58:50.679Z,13.90
2023-05-07T21:01:18.479Z,14.10
2023-05-07T21:03:46.327Z,14.10
2023-05-07T21:06:14.136Z,14.20
2023-05-07T21:08:43.269Z,14.40
2023-05-07T21:11:12.967Z,14.30
2023-05-07T21:13:40.770Z,14.10
2023-05-07T21:16:10.170Z,14.00
2023-05-07T21:18:38.132Z,14.10
2023-05-07T21:21:08.766Z,14.10
2023-05-07T21:23:36.879Z,14.00
2023-05-07T21:26:06.105Z,13.90
2023-05-07T21:28:33.920Z,14.10
2023-05-07T21:31:01.734Z,14.10
2023-05-07T21:33:29.524Z,14.30
2023-05-07T21:35:57.360Z,14.30
2023-05-07T21:38:25.180Z,14.30
2023-05-07T21:40:52.988Z,14.30
2023-05-07T21:43:22.124Z,14.50
2023-05-07T21:45:49.954Z,14.50
2023-05-07T21:48:21.133Z,14.30
2023-05-07T21:50:48.997Z,14.30
2023-05-07T21:53:16.790Z,14.30
2023-05-07T21:55:44.575Z,14.20
2023-05-07T21:58:12.373Z,14.10
2023-05-07T22:00:41.540Z,14.00
2023-05-07T22:03:09.459Z,14.10
2023-05-07T22:05:37.321Z,14.00
2023-05-07T22:08:05.839Z,13.90
2023-05-07T22:10:33.623Z,13.90
2023-05-07T22:13:01.562Z,14.00
2023-05-07T22:15:29.402Z,13.80
2023-05-07T22:17:58.563Z,13.80
2023-05-07T22:20:26.374Z,13.80
2023-05-07T22:22:54.765Z,13.90
2023-05-07T22:25:22.718Z,13.70
2023-05-07T22:27:50.688Z,14.00
2023-05-07T22:30:18.735Z,13.70
2023-05-07T22:32:46.694Z,13.80
2023-05-07T22:35:15.881Z,13.80
2023-05-07T22:37:43.691Z,13.70
2023-05-07T22:40:12.591Z,13.70
2023-05-07T22:42:40.628Z,13.70
2023-05-07T22:45:09.619Z,13.70
2023-05-07T22:47:37.463Z,13.60
2023-05-07T22:50:06.492Z,13.60
2023-05-07T22:52:35.739Z,13.60
2023-05-07T22:55:03.565Z,13.60
2023-05-07T22:57:31.409Z,13.60
2023-05-07T22:59:59.252Z,13.70
2023-05-07T23:02:28.852Z,13.40
2023-05-07T23:04:59.176Z,13.50
2023-05-07T23:07:26.961Z,13.40
2023-05-07T23:09:56.068Z,13.60
2023-05-07T23:12:23.846Z,13.50
2023-05-07T23:14:51.638Z,13.40
2023-05-07T23:17:19.388Z,13.60
2023-05-07T23:19:47.161Z,13.30
2023-05-07T23:22:15.866Z,13.20
2023-05-07T23:24:43.749Z,13.20
2023-05-07T23:27:12.860Z,13.30
2023-05-07T23:29:40.624Z,13.40
2023-05-07T23:32:08.423Z,13.20
2023-05-07T23:34:36.201Z,13.30
2023-05-07T23:37:04.003Z,13.20
2023-05-07T23:39:31.847Z,13.30
2023-05-07T23:41:59.624Z,13.30
2023-05-07T23:44:28.747Z,13.30
2023-05-07T23:46:56.532Z,13.40
2023-05-07T23:49:24.373Z,13.40
2023-05-07T23:51:52.151Z,13.30
2023-05-07T23:54:20.048Z,13.40
2023-05-07T23:56:47.820Z,13.20
2023-05-07T23:59:15.604Z,13.30
